createdAt,value
2022-10-18T00:01:08.189Z,1006.63
2022-10-18T00:06:08.199Z,1006.57
2022-10-18T00:11:08.158Z,1006.64
2022-10-18T00:16:07.881Z,1006.65
2022-10-18T00:21:07.978Z,1006.68
2022-10-18T00:26:07.824Z,1006.63
2022-10-18T00:31:07.802Z,1006.65
2022-10-18T00:36:07.673Z,1006.76
2022-10-18T00:41:07.949Z,1006.70
2022-10-18T00:46:10.553Z,1006.73
2022-10-18T00:51:07.574Z,1006.69
2022-10-18T00:56:08.043Z,1006.64
2022-10-18T01:01:07.258Z,1006.71
2022-10-18T01:07:25.167Z,1006.70
2022-10-18T01:21:22.925Z,1006.88
2022-10-18T01:26:22.754Z,1006.80
2022-10-18T01:31:22.766Z,1006.72
2022-10-18T01:36:22.533Z,1006.75
2022-10-18T01:51:13.755Z,1006.84
2022-10-18T01:56:13.409Z,1006.85
2022-10-18T02:01:14.707Z,1006.85
2022-10-18T02:11:32.289Z,1006.95
2022-10-18T02:20:49.184Z,1006.93
2022-10-18T02:25:48.742Z,1006.93
2022-10-18T02:30:48.798Z,1006.98
2022-10-18T02:35:48.543Z,1006.95
2022-10-18T02:40:48.537Z,1007.03
2022-10-18T02:53:47.097Z,1006.96
2022-10-18T02:58:46.941Z,1006.80
2022-10-18T03:03:47.223Z,1006.72
2022-10-18T03:08:46.646Z,1006.68
2022-10-18T03:13:46.655Z,1006.66
2022-10-18T03:18:46.715Z,1006.56
2022-10-18T03:23:46.602Z,1006.55
2022-10-18T03:28:46.495Z,1006.70
2022-10-18T03:33:46.620Z,1006.70
2022-10-18T03:38:46.271Z,1006.72
2022-10-18T03:43:49.345Z,1006.74
2022-10-18T03:48:46.082Z,1006.73
2022-10-18T03:53:46.008Z,1006.66
2022-10-18T03:58:46.241Z,1006.68
2022-10-18T04:20:25.456Z,1006.67
2022-10-18T04:25:24.276Z,1006.46
2022-10-18T04:30:24.246Z,1006.37
2022-10-18T04:35:24.311Z,1006.48
2022-10-18T04:40:24.689Z,1006.46
2022-10-18T04:45:23.962Z,1006.38
2022-10-18T04:50:23.905Z,1006.36
2022-10-18T04:55:23.821Z,1006.31
2022-10-18T05:00:25.161Z,1006.32
2022-10-18T05:05:29.633Z,1006.28
2022-10-18T05:10:27.786Z,1006.13
2022-10-18T05:15:23.576Z,1006.11
2022-10-18T05:20:23.666Z,1006.13
2022-10-18T05:25:23.526Z,1006.07
2022-10-18T05:30:24.576Z,1006.00
2022-10-18T05:35:23.224Z,1005.95
2022-10-18T05:41:44.111Z,1005.91
2022-10-18T05:46:44.113Z,1005.79
2022-10-18T05:51:44.422Z,1005.80
2022-10-18T05:56:43.748Z,1005.81
2022-10-18T06:18:14.603Z,1005.89
2022-10-18T06:23:14.293Z,1005.96
2022-10-18T06:28:14.356Z,1006.18
2022-10-18T07:19:31.666Z,1005.84
2022-10-18T07:24:30.781Z,1005.41
2022-10-18T07:29:39.131Z,1005.86
2022-10-18T07:34:37.547Z,1005.90
2022-10-18T07:39:30.558Z,1005.98
2022-10-18T07:44:30.415Z,1005.86
2022-10-18T07:49:30.506Z,1005.84
2022-10-18T07:54:30.276Z,1006.19
2022-10-18T07:59:30.233Z,1006.14
2022-10-18T08:04:30.279Z,1006.17
2022-10-18T08:09:33.098Z,1006.22
2022-10-18T08:14:30.158Z,1006.35
2022-10-18T08:19:29.979Z,1006.25
2022-10-18T08:24:29.847Z,1005.61
2022-10-18T08:29:31.997Z,1005.93
2022-10-18T08:34:29.844Z,1005.84
2022-10-18T08:39:29.867Z,1005.87
2022-10-18T08:44:29.607Z,1005.88
2022-10-18T08:49:29.660Z,1006.02
2022-10-18T08:54:29.446Z,1006.29
2022-10-18T08:59:29.571Z,1006.37
2022-10-18T09:04:29.341Z,1006.39
2022-10-18T09:09:32.394Z,1006.50
2022-10-18T09:14:29.223Z,1006.54
2022-10-18T09:19:36.958Z,1006.46
2022-10-18T09:24:29.112Z,1006.39
2022-10-18T09:29:29.081Z,1006.36
2022-10-18T09:34:28.949Z,1006.51
2022-10-18T09:39:29.540Z,1006.61
2022-10-18T09:44:28.918Z,1006.49
2022-10-18T09:49:29.035Z,1006.40
2022-10-18T09:54:28.626Z,1006.50
2022-10-18T09:59:28.637Z,1006.58
2022-10-18T10:04:28.624Z,1006.62
2022-10-18T10:09:31.628Z,1006.70
2022-10-18T10:14:28.629Z,1006.75
2022-10-18T10:19:28.695Z,1006.66
2022-10-18T10:24:30.452Z,1006.77
2022-10-18T10:29:44.003Z,1006.78
2022-10-18T10:34:29.260Z,1006.85
2022-10-18T10:39:28.308Z,1006.85
2022-10-18T10:44:29.649Z,1006.84
2022-10-18T10:49:39.533Z,1006.91
2022-10-18T10:54:29.298Z,1006.95
2022-10-18T10:59:27.930Z,1006.97
2022-10-18T11:04:27.903Z,1006.98
2022-10-18T11:09:30.805Z,1006.89
2022-10-18T11:14:27.787Z,1006.93
2022-10-18T11:19:28.467Z,1006.77
2022-10-18T11:24:27.431Z,1006.87
2022-10-18T11:29:27.542Z,1006.82
2022-10-18T11:34:27.505Z,1006.87
2022-10-18T11:39:27.372Z,1006.88
2022-10-18T11:44:34.588Z,1006.89
2022-10-18T11:49:34.593Z,1006.96
2022-10-18T11:54:27.096Z,1006.89
2022-10-18T11:59:26.951Z,1006.95
2022-10-18T12:04:27.044Z,1006.93
2022-10-18T12:09:29.888Z,1006.87
2022-10-18T12:14:34.631Z,1006.93
2022-10-18T12:19:34.172Z,1006.90
2022-10-18T12:24:26.902Z,1006.90
2022-10-18T12:29:26.649Z,1006.70
2022-10-18T12:34:33.870Z,1006.70
2022-10-18T12:39:43.779Z,1006.69
2022-10-18T12:44:33.348Z,1006.71
2022-10-18T12:49:27.599Z,1006.78
2022-10-18T12:54:26.290Z,1006.79
2022-10-18T12:59:26.226Z,1006.83
2022-10-18T13:04:26.158Z,1006.82
2022-10-18T13:09:29.072Z,1006.77
2022-10-18T13:14:26.016Z,1006.78
2022-10-18T13:19:26.083Z,1006.83
2022-10-18T13:24:25.865Z,1006.77
2022-10-18T13:29:25.934Z,1006.78
2022-10-18T13:34:25.692Z,1006.82
2022-10-18T13:39:25.676Z,1006.84
2022-10-18T13:44:25.665Z,1006.84
2022-10-18T13:49:25.611Z,1006.98
2022-10-18T13:54:25.411Z,1006.88
2022-10-18T13:59:25.684Z,1007.00
2022-10-18T14:04:25.308Z,1006.96
2022-10-18T14:09:45.103Z,1006.94
2022-10-18T14:14:26.211Z,1007.03
2022-10-18T14:19:25.179Z,1007.03
2022-10-18T14:24:25.019Z,1007.06
2022-10-18T14:29:25.022Z,1007.09
2022-10-18T14:34:24.916Z,1007.09
2022-10-18T14:39:25.216Z,1007.10
2022-10-18T14:44:24.766Z,1007.17
2022-10-18T14:49:24.772Z,1007.15
2022-10-18T14:54:27.542Z,1007.08
2022-10-18T14:59:25.781Z,1007.12
2022-10-18T15:04:27.891Z,1007.21
2022-10-18T15:14:24.429Z,1007.25
2022-10-18T15:19:24.400Z,1007.22
2022-10-18T15:24:24.283Z,1007.24
2022-10-18T15:29:24.207Z,1007.35
2022-10-18T15:34:24.269Z,1007.26
2022-10-18T15:39:24.070Z,1007.23
2022-10-18T15:44:24.009Z,1007.25
2022-10-18T15:49:23.909Z,1007.29
2022-10-18T15:54:23.852Z,1007.33
2022-10-18T15:59:23.836Z,1007.33
2022-10-18T16:04:23.716Z,1007.42
2022-10-18T16:09:26.729Z,1007.41
2022-10-18T16:14:31.174Z,1007.47
2022-10-18T16:19:31.057Z,1007.47
2022-10-18T16:24:23.463Z,1007.54
2022-10-18T16:29:23.334Z,1007.65
2022-10-18T16:34:23.392Z,1007.62
2022-10-18T16:39:23.201Z,1007.66
2022-10-18T16:44:23.268Z,1007.68
2022-10-18T16:49:23.141Z,1007.68
2022-10-18T16:54:23.199Z,1007.77
2022-10-18T16:59:22.973Z,1007.78
2022-10-18T17:04:23.041Z,1007.80
2022-10-18T17:09:25.941Z,1007.84
2022-10-18T17:14:22.900Z,1007.95
2022-10-18T17:19:22.856Z,1008.02
2022-10-18T17:24:30.650Z,1008.05
2022-10-18T17:29:29.557Z,1008.13
2022-10-18T17:34:22.651Z,1008.16
2022-10-18T17:39:22.511Z,1008.13
2022-10-18T17:44:22.427Z,1008.11
2022-10-18T17:49:30.158Z,1008.17
2022-10-18T17:54:29.730Z,1008.14
2022-10-18T17:59:22.200Z,1008.11
2022-10-18T18:04:22.161Z,1008.10
2022-10-18T18:09:25.307Z,1008.17
2022-10-18T18:14:29.581Z,1008.09
2022-10-18T18:19:29.409Z,1008.03
2022-10-18T18:24:29.792Z,1008.06
2022-10-18T18:29:29.269Z,1008.12
2022-10-18T18:34:29.061Z,1008.12
2022-10-18T18:39:21.661Z,1008.20
2022-10-18T18:44:21.626Z,1008.14
2022-10-18T18:49:21.502Z,1008.05
2022-10-18T18:54:21.578Z,1008.11
2022-10-18T18:59:21.346Z,1008.13
2022-10-18T19:04:21.470Z,1008.15
2022-10-18T19:09:24.236Z,1008.19
2022-10-18T19:19:21.193Z,1008.15
2022-10-18T19:24:21.018Z,1008.18
2022-10-18T19:29:21.094Z,1008.20
2022-10-18T19:34:28.960Z,1008.25
2022-10-18T19:39:20.870Z,1008.26
2022-10-18T19:44:20.899Z,1008.36
2022-10-18T19:49:20.675Z,1008.46
2022-10-18T19:54:20.961Z,1008.39
2022-10-18T19:59:20.545Z,1008.51
2022-10-18T20:04:20.622Z,1008.61
2022-10-18T20:09:23.566Z,1008.57
2022-10-18T20:14:20.366Z,1008.56
2022-10-18T20:19:20.610Z,1008.57
2022-10-18T20:24:20.209Z,1008.55
2022-10-18T20:29:20.236Z,1008.46
2022-10-18T20:34:20.066Z,1008.50
2022-10-18T20:39:21.441Z,1008.48
2022-10-18T20:44:27.158Z,1008.43
2022-10-18T20:49:27.581Z,1008.50
2022-10-18T20:54:19.890Z,1008.55
2022-10-18T20:59:19.795Z,1008.56
2022-10-18T21:04:19.756Z,1008.68
2022-10-18T21:09:22.719Z,1008.63
2022-10-18T21:14:19.698Z,1008.65
2022-10-18T21:19:19.548Z,1008.61
2022-10-18T21:24:19.431Z,1008.65
2022-10-18T21:29:22.270Z,1008.79
2022-10-18T21:34:19.286Z,1008.81
2022-10-18T21:39:19.440Z,1008.79
2022-10-18T21:44:19.162Z,1008.77
2022-10-18T21:49:19.766Z,1008.78
2022-10-18T21:54:19.050Z,1008.77
2022-10-18T21:59:19.007Z,1008.78
2022-10-18T22:04:18.898Z,1008.87
2022-10-18T22:09:29.476Z,1008.88
2022-10-18T22:14:18.911Z,1008.90
2022-10-18T22:19:18.736Z,1008.90
2022-10-18T22:24:18.633Z,1008.89
2022-10-18T22:29:18.616Z,1008.76
2022-10-18T22:34:18.531Z,1008.72
2022-10-18T22:39:18.419Z,1008.79
2022-10-18T22:44:26.206Z,1008.69
2022-10-18T22:49:25.755Z,1008.80
2022-10-18T22:54:18.926Z,1008.84
2022-10-18T22:59:18.173Z,1008.79
2022-10-18T23:04:25.966Z,1008.85
2022-10-18T23:09:28.963Z,1008.84
2022-10-18T23:14:17.931Z,1008.90
2022-10-18T23:19:17.970Z,1008.90
2022-10-18T23:24:17.788Z,1008.84
2022-10-18T23:29:17.832Z,1008.76
2022-10-18T23:34:17.779Z,1008.74
2022-10-18T23:39:17.695Z,1008.74
2022-10-18T23:44:17.561Z,1008.79
2022-10-18T23:49:17.501Z,1008.76
2022-10-18T23:54:17.681Z,1008.87
2022-10-18T23:59:17.490Z,1008.93
